Terminal Aerodrome Forecast
Issued by NWS

Current Version | Previous Version | Graphics & Text | Print | Product List | Glossary On
Versions: 1 2 3 4 5 6 7 8 9 10 11 12 13 14 15 16 17 18 19 20 21 22 23
000
FTUS41 KRLX 190539
TAFCKB
TAF
KCKB 190539Z 1906/2006 VRB03KT P6SM BKN200 WS020/19035KT
     FM190900 VRB03KT P6SM BKN050 WS020/20040KT
     FM191100 18006G15KT P6SM -RA BKN025
     FM191800 21008G16KT P6SM OVC040
     FM200000 19005KT P6SM SCT100=

USA.gov is the U.S. government's official web portal to all federal, state and local government web resources and services.